Time;durP1;ratioP1;P1;durP2;ratioP2;P2;SDS_P1;SDS_P2;PMS_P1;PMS_P2;Temp;Humidity;BMP_temperature;BMP_pressure;BME280_temperature;BME280_humidity;BME280_pressure;Samples;Min_cycle;Max_cycle;Signal;HPM_P1;HPM_P2
2023/04/09 00:01:08;;;;;;;35.57;16.13;;;8.10;99.90;;;;;;4884539;29;20476;-74
2023/04/09 00:03:36;;;;;;;23.50;13.60;;;8.10;99.90;;;;;;4883950;29;20553;-74
2023/04/09 00:06:06;;;;;;;30.27;15.73;;;8.10;99.90;;;;;;4870908;29;20585;-74
2023/04/09 00:08:38;;;;;;;29.47;15.37;;;8.10;99.90;;;;;;4864440;29;21075;-73
2023/04/09 00:23:52;;;;;;;21.07;12.57;;;7.80;99.90;;;;;;4867652;29;20490;-74
2023/04/09 00:26:20;;;;;;;19.10;12.33;;;7.70;99.90;;;;;;4891205;29;20578;-74
2023/04/09 00:28:48;;;;;;;24.43;14.80;;;7.60;99.90;;;;;;4894811;29;20469;-74
2023/04/09 00:31:20;;;;;;;27.83;12.87;;;7.50;99.90;;;;;;4889070;29;20461;-74
2023/04/09 00:33:47;;;;;;;25.47;15.27;;;7.50;99.90;;;;;;4891640;29;20926;-75
2023/04/09 00:36:16;;;;;;;29.67;15.73;;;7.50;99.90;;;;;;4855271;29;20448;-74
2023/04/09 00:38:52;;;;;;;22.80;12.87;;;7.30;99.90;;;;;;4892461;29;20564;-74
2023/04/09 00:41:20;;;;;;;26.13;12.93;;;7.20;99.90;;;;;;4880794;29;20528;-74
2023/04/09 00:43:50;;;;;;;31.43;12.60;;;7.10;99.90;;;;;;4892451;29;20821;-75
2023/04/09 00:46:18;;;;;;;25.13;13.53;;;7.20;99.90;;;;;;4885885;29;20699;-74
2023/04/09 00:48:49;;;;;;;26.17;13.70;;;7.20;99.90;;;;;;4887127;29;20637;-75
2023/04/09 00:51:19;;;;;;;28.57;15.97;;;7.10;99.90;;;;;;4887241;29;21722;-74
2023/04/09 00:53:47;;;;;;;27.17;12.33;;;7.10;99.90;;;;;;4867297;29;20482;-73
2023/04/09 00:56:21;;;;;;;27.63;13.23;;;7.10;99.90;;;;;;4887124;29;20471;-74
2023/04/09 00:58:48;;;;;;;25.20;14.03;;;7.00;99.90;;;;;;4894810;29;20484;-73
2023/04/09 01:01:15;;;;;;;17.07;10.57;;;7.00;99.90;;;;;;4870178;29;20789;-73
2023/04/09 01:03:50;;;;;;;18.13;10.57;;;7.00;99.90;;;;;;4878053;29;21002;-73
2023/04/09 01:06:27;;;;;;;29.00;13.60;;;7.00;99.90;;;;;;4887395;29;20472;-73
2023/04/09 01:09:03;;;;;;;20.83;11.17;;;7.00;99.90;;;;;;4842848;29;20475;-74
2023/04/09 01:11:38;;;;;;;18.90;10.53;;;7.00;99.90;;;;;;4881565;29;20943;-74
2023/04/09 01:14:14;;;;;;;28.73;11.83;;;6.90;99.90;;;;;;4892878;29;20460;-74
2023/04/09 01:16:46;;;;;;;22.60;10.90;;;6.70;99.90;;;;;;4883555;29;20444;-74
2023/04/09 01:19:28;;;;;;;23.27;10.87;;;6.50;99.90;;;;;;4893805;29;20925;-74
2023/04/09 01:22:01;;;;;;;23.20;13.17;;;6.50;99.90;;;;;;4877457;29;20463;-74
2023/04/09 01:24:44;;;;;;;30.77;13.87;;;6.40;99.90;;;;;;4877107;29;20615;-74
2023/04/09 01:27:17;;;;;;;16.10;10.70;;;6.40;99.90;;;;;;4870788;29;20962;-74
2023/04/09 01:29:50;;;;;;;23.07;9.47;;;6.50;99.90;;;;;;4894913;29;20496;-74
2023/04/09 01:32:20;;;;;;;21.03;11.00;;;6.50;99.90;;;;;;4893279;29;20932;-74
2023/04/09 01:34:48;;;;;;;19.60;10.60;;;6.50;99.90;;;;;;4887988;29;20531;-74
2023/04/09 01:37:16;;;;;;;17.73;9.40;;;6.50;99.90;;;;;;4879211;29;20471;-74
2023/04/09 01:39:46;;;;;;;22.00;10.03;;;6.40;99.90;;;;;;4890054;29;20445;-74
2023/04/09 01:42:22;;;;;;;20.07;10.47;;;6.30;99.90;;;;;;4860213;29;20437;-74
2023/04/09 01:44:51;;;;;;;25.87;10.77;;;6.20;99.90;;;;;;4881946;29;20575;-74
2023/04/09 01:47:21;;;;;;;21.17;11.47;;;6.00;99.90;;;;;;4897623;29;20574;-75
2023/04/09 01:49:52;;;;;;;20.03;10.77;;;5.90;99.90;;;;;;4888864;29;20462;-74
2023/04/09 01:52:20;;;;;;;22.57;10.27;;;5.90;99.90;;;;;;4880147;29;22933;-74
2023/04/09 01:54:47;;;;;;;18.27;10.80;;;6.00;99.90;;;;;;4887309;29;20543;-75
2023/04/09 01:57:14;;;;;;;21.13;10.30;;;5.90;99.90;;;;;;4869117;29;20482;-74
2023/04/09 01:59:41;;;;;;;16.27;10.07;;;6.00;99.90;;;;;;4881842;29;20463;-75
2023/04/09 02:02:15;;;;;;;26.77;11.37;;;6.10;99.90;;;;;;4891691;29;21036;-74
2023/04/09 02:04:58;;;;;;;14.53;8.83;;;6.20;99.90;;;;;;4877467;29;20509;-74
2023/04/09 02:07:31;;;;;;;22.67;12.20;;;6.20;99.90;;;;;;4884762;29;20798;-74
2023/04/09 02:10:02;;;;;;;20.40;10.97;;;6.20;99.90;;;;;;4887147;29;20486;-73
2023/04/09 02:12:33;;;;;;;17.90;10.27;;;6.10;99.90;;;;;;4882435;29;21034;-74
2023/04/09 02:15:02;;;;;;;27.73;9.63;;;6.00;99.90;;;;;;4883683;29;20999;-74
2023/04/09 02:17:35;;;;;;;17.57;8.57;;;5.80;99.90;;;;;;4878094;29;20467;-75
2023/04/09 02:20:02;;;;;;;24.17;12.47;;;5.80;99.90;;;;;;4883477;29;20549;-74
2023/04/09 02:22:47;;;;;;;29.37;10.80;;;5.80;99.90;;;;;;4881476;29;20464;-74
2023/04/09 02:25:15;;;;;;;18.80;8.43;;;5.80;99.90;;;;;;4894867;29;20525;-74
2023/04/09 02:27:42;;;;;;;16.17;9.20;;;5.70;99.90;;;;;;4881291;29;20605;-74
2023/04/09 02:30:09;;;;;;;13.13;8.37;;;5.80;99.90;;;;;;4850251;29;20489;-74
2023/04/09 02:32:38;;;;;;;16.00;8.30;;;5.80;99.90;;;;;;4884834;29;20472;-74
2023/04/09 02:35:06;;;;;;;15.93;10.57;;;5.80;99.90;;;;;;4884134;29;20454;-74
2023/04/09 02:37:33;;;;;;;20.27;9.70;;;5.80;99.90;;;;;;4861696;29;20540;-74
2023/04/09 02:40:03;;;;;;;22.63;9.23;;;5.90;99.90;;;;;;4885557;29;20551;-74
2023/04/09 02:42:30;;;;;;;13.63;8.53;;;5.90;99.90;;;;;;4892791;29;20471;-75
2023/04/09 02:44:57;;;;;;;20.73;10.20;;;5.80;99.90;;;;;;4881350;29;20498;-74
2023/04/09 02:47:25;;;;;;;12.13;8.03;;;5.70;99.90;;;;;;4887116;29;21010;-74
2023/04/09 02:49:58;;;;;;;19.63;9.80;;;5.70;99.90;;;;;;4885602;29;20537;-75
2023/04/09 02:52:25;;;;;;;13.27;8.73;;;5.60;99.90;;;;;;4883756;29;20486;-74
2023/04/09 02:54:54;;;;;;;11.67;8.40;;;5.50;99.90;;;;;;4894761;29;20528;-74
2023/04/09 02:57:21;;;;;;;18.10;9.73;;;5.40;99.90;;;;;;4885465;29;20434;-74
2023/04/09 02:59:48;;;;;;;18.80;10.07;;;5.40;99.90;;;;;;4880089;29;20508;-75
2023/04/09 03:02:18;;;;;;;18.67;9.30;;;5.40;99.90;;;;;;4886581;29;20559;-75
2023/04/09 03:04:45;;;;;;;15.77;10.07;;;5.30;99.90;;;;;;4889488;29;20970;-74
2023/04/09 03:07:14;;;;;;;17.47;9.97;;;5.30;99.90;;;;;;4871086;29;20459;-76
2023/04/09 03:09:42;;;;;;;17.73;8.97;;;5.30;99.90;;;;;;4895879;29;20528;-73
2023/04/09 03:12:16;;;;;;;17.77;9.47;;;5.30;99.90;;;;;;4888711;29;20497;-73
2023/04/09 03:14:46;;;;;;;14.27;8.47;;;5.20;99.90;;;;;;4891109;29;20522;-73
2023/04/09 03:17:15;;;;;;;13.83;9.30;;;5.10;99.90;;;;;;4888034;29;21165;-73
2023/04/09 03:19:42;;;;;;;15.00;9.47;;;5.20;99.90;;;;;;4883834;29;20466;-73
2023/04/09 03:22:14;;;;;;;20.93;10.93;;;5.10;99.90;;;;;;4873495;29;20477;-73
2023/04/09 03:24:41;;;;;;;19.30;9.80;;;5.10;99.90;;;;;;4895192;29;20543;-73
2023/04/09 03:27:10;;;;;;;19.53;9.57;;;5.20;99.90;;;;;;4888034;29;20442;-74
2023/04/09 03:29:38;;;;;;;19.17;9.53;;;5.20;99.90;;;;;;4885925;29;20434;-74
2023/04/09 03:32:06;;;;;;;20.07;10.70;;;5.20;99.90;;;;;;4885309;29;20879;-74
2023/04/09 03:34:33;;;;;;;11.97;8.43;;;5.10;99.90;;;;;;4882457;29;21281;-75
2023/04/09 03:37:00;;;;;;;14.37;7.70;;;5.00;99.90;;;;;;4885594;29;20532;-74
2023/04/09 03:39:29;;;;;;;14.97;8.90;;;5.10;99.90;;;;;;4887512;29;20828;-74
2023/04/09 03:41:57;;;;;;;20.20;8.70;;;5.00;99.90;;;;;;4885131;29;20449;-74
2023/04/09 03:44:25;;;;;;;17.93;9.77;;;5.00;99.90;;;;;;4885968;29;20790;-74
2023/04/09 03:46:52;;;;;;;21.87;9.33;;;5.00;99.90;;;;;;4834531;29;21098;-74
2023/04/09 03:49:22;;;;;;;15.93;7.97;;;4.90;99.90;;;;;;4886610;29;20482;-74
2023/04/09 03:52:03;;;;;;;14.80;6.80;;;4.90;99.90;;;;;;4885694;29;20469;-74
2023/04/09 03:54:35;;;;;;;18.10;8.20;;;4.80;99.90;;;;;;4883195;29;20920;-74
2023/04/09 03:57:12;;;;;;;12.13;6.43;;;4.70;99.90;;;;;;4888321;29;20964;-74
2023/04/09 03:59:39;;;;;;;20.30;9.23;;;4.80;99.90;;;;;;4888916;29;20490;-74
2023/04/09 04:02:07;;;;;;;18.37;8.37;;;4.80;99.90;;;;;;4879997;29;20466;-73
2023/04/09 04:04:38;;;;;;;10.07;7.13;;;4.80;99.90;;;;;;4888551;29;20461;-74
2023/04/09 04:07:06;;;;;;;10.60;7.63;;;4.80;99.90;;;;;;4884839;29;21403;-74
2023/04/09 04:09:38;;;;;;;17.53;7.50;;;4.70;99.90;;;;;;4881641;29;20527;-74
2023/04/09 04:12:08;;;;;;;13.90;7.70;;;4.70;99.90;;;;;;4888327;29;20513;-74
2023/04/09 04:14:35;;;;;;;17.90;9.90;;;4.70;99.90;;;;;;4889168;29;20561;-75
2023/04/09 04:17:02;;;;;;;13.53;9.67;;;4.80;99.90;;;;;;4869367;29;20502;-74
2023/04/09 04:19:32;;;;;;;12.17;7.63;;;4.80;99.90;;;;;;4849770;29;20460;-73
2023/04/09 04:22:02;;;;;;;24.07;9.30;;;4.70;99.90;;;;;;4892328;29;20528;-74
2023/04/09 04:24:57;;;;;;;17.27;8.97;;;4.80;99.90;;;;;;4880824;29;20448;-74
2023/04/09 04:35:09;;;;;;;16.00;9.63;;;4.60;99.90;;;;;;4784676;29;20494;-74
2023/04/09 04:49:05;;;;;;;13.17;9.00;;;4.50;99.90;;;;;;4809492;29;20539;-74
2023/04/09 04:55:25;;;;;;;8.00;6.20;;;4.30;99.90;;;;;;4743778;30;21037;-74
2023/04/09 04:58:25;;;;;;;12.73;6.63;;;4.40;99.90;;;;;;4669937;30;20540;-74
2023/04/09 05:00:56;;;;;;;12.50;8.43;;;4.40;99.90;;;;;;4681863;30;20454;-74
2023/04/09 05:03:24;;;;;;;10.87;7.27;;;4.50;99.90;;;;;;4743039;30;20497;-74
2023/04/09 05:05:52;;;;;;;12.37;9.03;;;4.40;99.90;;;;;;4756029;30;20465;-74
2023/04/09 05:08:22;;;;;;;12.57;6.53;;;4.40;99.90;;;;;;4806181;29;20477;-74
2023/04/09 05:10:55;;;;;;;14.47;6.93;;;4.50;99.90;;;;;;4811705;29;20505;-74
2023/04/09 05:41:21;;;;;;;12.03;7.43;;;5.20;99.90;;;;;;4725002;30;20440;-73
2023/04/09 05:47:36;;;;;;;;;;;;;;;;;;;;;
2023/04/09 06:01:29;;;;;;;;;;;;;;;;;;;;;
2023/04/09 06:04:35;;;;;;;18.57;11.50;;;6.90;99.90;;;;;;4783699;29;20476;-73
2023/04/09 06:14:48;;;;;;;20.73;10.50;;;7.70;99.90;;;;;;4738017;29;20805;-73
2023/04/09 06:48:59;;;;;;;;;;;;;;;;;;;;;
2023/04/09 07:15:23;;;;;;;13.00;9.03;;;13.30;99.90;;;;;;4842266;29;22544;-74
2023/04/09 07:18:43;;;;;;;13.43;8.87;;;13.80;99.90;;;;;;4817109;29;20541;-75
2023/04/09 07:22:11;;;;;;;16.20;9.33;;;14.10;99.90;;;;;;4816895;29;20469;-75
2023/04/09 07:32:23;;;;;;;;;;;;;;;;;;;;;
2023/04/09 07:39:19;;;;;;;;;;;;;;;;;;;;;
2023/04/09 07:42:07;;;;;;;17.90;10.37;;;15.30;99.90;;;;;;4746551;30;20484;-75
2023/04/09 07:58:17;;;;;;;10.00;6.90;;;14.40;99.90;;;;;;4832256;29;20524;-74
2023/04/09 08:08:07;;;;;;;13.53;9.13;;;15.30;99.90;;;;;;4761135;30;20483;-74
2023/04/09 08:13:56;;;;;;;11.40;7.80;;;17.30;99.90;;;;;;4844223;29;20528;-76
2023/04/09 08:16:29;;;;;;;14.40;8.57;;;17.70;99.90;;;;;;4840985;29;20927;-75
2023/04/09 08:18:56;;;;;;;15.60;8.60;;;18.00;99.90;;;;;;4831094;29;21037;-75
2023/04/09 08:21:23;;;;;;;13.27;8.10;;;18.20;99.90;;;;;;4838258;29;20895;-75
2023/04/09 08:23:51;;;;;;;11.23;8.90;;;18.70;99.90;;;;;;4842029;29;20489;-75
2023/04/09 08:26:18;;;;;;;15.70;9.50;;;19.40;99.90;;;;;;4877132;29;20539;-76
2023/04/09 08:28:45;;;;;;;14.63;8.33;;;19.60;99.90;;;;;;4880512;29;22762;-74
2023/04/09 08:31:16;;;;;;;13.97;8.23;;;20.10;99.90;;;;;;4849999;29;20494;-74
2023/04/09 08:33:43;;;;;;;15.97;10.20;;;19.40;99.90;;;;;;4888080;29;20955;-74
2023/04/09 08:36:11;;;;;;;9.60;8.50;;;19.60;99.90;;;;;;4881919;29;20475;-74
2023/04/09 08:38:38;;;;;;;14.57;8.37;;;20.00;99.70;;;;;;4886865;29;21176;-74
2023/04/09 08:41:05;;;;;;;10.57;7.53;;;19.30;99.50;;;;;;4882733;29;20477;-75
2023/04/09 08:43:36;;;;;;;8.47;6.50;;;19.10;98.60;;;;;;4876783;29;20486;-75
2023/04/09 08:46:03;;;;;;;10.50;6.63;;;19.70;96.80;;;;;;4882535;29;20946;-75
2023/04/09 08:48:32;;;;;;;8.80;6.50;;;20.00;95.20;;;;;;4876768;29;20490;-75
2023/04/09 08:51:00;;;;;;;10.70;4.80;;;20.60;95.30;;;;;;4878935;29;20566;-74
2023/04/09 08:53:28;;;;;;;9.60;6.67;;;19.70;93.70;;;;;;4878862;29;20474;-74
2023/04/09 08:55:55;;;;;;;11.20;6.40;;;19.20;94.00;;;;;;4876379;29;20562;-74
2023/04/09 08:58:22;;;;;;;10.33;7.37;;;20.00;95.00;;;;;;4870989;29;20861;-74
2023/04/09 09:00:49;;;;;;;10.67;7.20;;;21.30;93.50;;;;;;4852877;29;20570;-74
2023/04/09 09:03:16;;;;;;;9.63;7.40;;;20.30;91.80;;;;;;4873912;29;20487;-75
2023/04/09 09:05:46;;;;;;;12.50;8.90;;;20.30;92.70;;;;;;4887744;29;20633;-74
2023/04/09 09:08:22;;;;;;;7.63;6.27;;;21.60;91.30;;;;;;4875117;29;20498;-75
2023/04/09 09:10:50;;;;;;;12.33;7.03;;;22.30;90.00;;;;;;4874728;29;21003;-75
2023/04/09 09:13:20;;;;;;;9.70;6.70;;;22.20;87.40;;;;;;4865760;29;20665;-74
2023/04/09 09:15:54;;;;;;;6.57;4.90;;;22.10;88.20;;;;;;4873372;29;20458;-75
2023/04/09 09:18:21;;;;;;;6.30;5.00;;;22.00;83.10;;;;;;4876155;29;20567;-75
2023/04/09 09:20:51;;;;;;;7.60;5.30;;;20.90;78.70;;;;;;4868686;29;20463;-74
2023/04/09 09:23:35;;;;;;;4.30;3.67;;;21.60;79.00;;;;;;4872142;29;20570;-75
2023/04/09 09:26:12;;;;;;;6.67;4.57;;;22.50;75.50;;;;;;4871324;29;20565;-74
2023/04/09 09:28:40;;;;;;;5.40;4.83;;;21.90;71.40;;;;;;4883211;29;21161;-74
2023/04/09 09:31:09;;;;;;;5.40;4.00;;;22.20;68.80;;;;;;4883304;29;20527;-75
2023/04/09 09:33:37;;;;;;;4.80;4.17;;;22.20;69.00;;;;;;4875953;29;21298;-75
2023/04/09 09:36:09;;;;;;;5.00;3.20;;;22.00;67.60;;;;;;4888779;29;20530;-74
2023/04/09 09:38:53;;;;;;;5.77;3.70;;;22.50;68.50;;;;;;4881625;29;20491;-75
2023/04/09 09:41:20;;;;;;;4.30;3.90;;;21.50;68.40;;;;;;4882068;29;20468;-75
2023/04/09 09:43:47;;;;;;;4.00;2.73;;;20.80;68.00;;;;;;4874491;29;20492;-74
2023/04/09 09:46:16;;;;;;;6.43;4.10;;;21.20;69.80;;;;;;4891062;29;20491;-75
2023/04/09 09:48:45;;;;;;;5.03;4.13;;;21.60;67.80;;;;;;4886732;29;20470;-75
2023/04/09 09:51:14;;;;;;;5.40;3.50;;;22.30;67.30;;;;;;4876199;29;20494;-74
2023/04/09 09:53:44;;;;;;;6.07;5.47;;;22.10;66.10;;;;;;4873737;29;20502;-74
2023/04/09 09:56:16;;;;;;;8.40;3.77;;;21.80;69.50;;;;;;4880216;29;23284;-73
2023/04/09 09:58:51;;;;;;;4.77;3.20;;;22.00;69.40;;;;;;4875992;29;20470;-74
2023/04/09 10:01:21;;;;;;;7.80;5.57;;;20.90;68.70;;;;;;4893308;29;21272;-74
2023/04/09 10:03:52;;;;;;;5.03;4.07;;;21.50;70.50;;;;;;4862496;29;21179;-74
2023/04/09 10:06:23;;;;;;;6.73;4.47;;;23.10;66.20;;;;;;4880626;29;20475;-74
2023/04/09 10:08:51;;;;;;;7.53;4.43;;;22.50;65.50;;;;;;4875546;29;20463;-74
2023/04/09 10:11:22;;;;;;;9.80;4.03;;;22.70;65.20;;;;;;4878076;29;20494;-74
2023/04/09 10:13:52;;;;;;;5.83;4.83;;;22.70;63.10;;;;;;4858546;29;21026;-74
2023/04/09 10:16:21;;;;;;;6.37;3.77;;;23.10;63.10;;;;;;4873582;29;20466;-74
2023/04/09 10:18:49;;;;;;;6.47;4.90;;;23.20;62.00;;;;;;4873572;29;22566;-74
2023/04/09 10:21:28;;;;;;;7.30;4.47;;;22.60;62.20;;;;;;4880397;29;20558;-76
2023/04/09 10:23:56;;;;;;;6.93;4.90;;;22.40;61.90;;;;;;4891222;29;20651;-74
2023/04/09 10:26:29;;;;;;;6.43;3.83;;;21.80;64.20;;;;;;4885777;29;20510;-75
2023/04/09 10:29:10;;;;;;;4.97;3.83;;;22.50;62.60;;;;;;4872292;29;20498;-74
2023/04/09 10:31:53;;;;;;;5.77;4.50;;;21.80;61.80;;;;;;4885247;29;20483;-74
2023/04/09 10:34:25;;;;;;;7.73;4.80;;;22.00;64.10;;;;;;4878256;29;20486;-74
2023/04/09 10:36:57;;;;;;;6.10;4.40;;;22.20;63.30;;;;;;4879827;29;20538;-74
2023/04/09 10:39:30;;;;;;;8.77;4.30;;;22.10;63.50;;;;;;4887072;29;20491;-74
2023/04/09 10:41:58;;;;;;;6.33;4.97;;;21.80;61.80;;;;;;4871354;29;20470;-74
2023/04/09 10:44:27;;;;;;;8.00;5.33;;;20.90;63.70;;;;;;4871913;29;20491;-74
2023/04/09 10:46:56;;;;;;;6.17;4.67;;;21.20;62.70;;;;;;4881485;29;20522;-74
2023/04/09 10:49:25;;;;;;;5.60;3.67;;;21.50;61.60;;;;;;4881344;29;20495;-75
2023/04/09 10:52:03;;;;;;;9.63;4.50;;;20.70;62.10;;;;;;4875180;29;20474;-75
2023/04/09 10:54:44;;;;;;;5.53;4.50;;;21.10;65.00;;;;;;4881525;29;20474;-74
2023/04/09 10:57:16;;;;;;;8.70;5.70;;;21.70;62.60;;;;;;4876069;29;20453;-77
2023/04/09 10:59:45;;;;;;;5.10;4.60;;;20.90;64.00;;;;;;4897190;29;21563;-75
2023/04/09 11:02:41;;;;;;;8.60;5.03;;;20.60;65.30;;;;;;4866706;29;20550;-75
2023/04/09 11:05:33;;;;;;;6.73;5.13;;;20.40;65.10;;;;;;4887074;29;20537;-76
2023/04/09 11:08:09;;;;;;;6.57;4.80;;;21.40;67.20;;;;;;4905602;29;20938;-76
2023/04/09 11:10:37;;;;;;;9.77;5.83;;;22.90;64.30;;;;;;4899042;29;20465;-73
2023/04/09 11:13:10;;;;;;;8.80;5.50;;;23.40;61.30;;;;;;4883435;29;20491;-74
2023/04/09 11:15:39;;;;;;;7.57;4.87;;;24.60;62.50;;;;;;4890816;29;20466;-74
2023/04/09 11:18:08;;;;;;;6.80;5.63;;;26.20;58.40;;;;;;4875152;29;20525;-74
2023/04/09 11:20:36;;;;;;;6.33;4.37;;;24.60;58.90;;;;;;4885204;29;20491;-76
2023/04/09 11:23:07;;;;;;;6.77;4.40;;;21.70;59.00;;;;;;4883904;29;20708;-74
2023/04/09 11:25:37;;;;;;;8.57;4.93;;;19.90;62.40;;;;;;4883027;29;20467;-74
2023/04/09 11:28:04;;;;;;;6.50;4.83;;;19.70;62.90;;;;;;4880105;29;20851;-74
2023/04/09 11:30:33;;;;;;;5.37;4.70;;;19.30;63.70;;;;;;4890505;29;20835;-73
2023/04/09 11:33:02;;;;;;;6.43;4.67;;;19.70;65.70;;;;;;4890207;29;21150;-73
2023/04/09 11:35:29;;;;;;;7.30;4.73;;;20.10;63.80;;;;;;4874042;29;20470;-73
2023/04/09 11:37:56;;;;;;;7.50;4.60;;;19.80;63.60;;;;;;4879383;29;21069;-73
2023/04/09 11:40:27;;;;;;;8.60;5.30;;;20.70;67.20;;;;;;4866919;29;20550;-74
2023/04/09 11:42:55;;;;;;;7.90;5.10;;;22.80;63.50;;;;;;4879768;29;20576;-75
2023/04/09 11:45:25;;;;;;;7.30;5.30;;;22.90;64.00;;;;;;4871085;29;20474;-75
2023/04/09 11:47:53;;;;;;;8.30;5.60;;;23.70;61.30;;;;;;4844543;29;20462;-75
2023/04/09 11:50:20;;;;;;;6.87;4.70;;;24.20;59.40;;;;;;4880063;29;20475;-74
2023/04/09 11:52:49;;;;;;;6.07;5.43;;;24.40;58.90;;;;;;4870235;29;20589;-75
2023/04/09 11:55:29;;;;;;;6.83;6.10;;;25.40;58.00;;;;;;4879812;29;20470;-76
2023/04/09 11:57:59;;;;;;;7.70;5.20;;;25.60;56.00;;;;;;4890452;29;20455;-73
2023/04/09 12:00:27;;;;;;;7.00;5.60;;;26.30;55.20;;;;;;4881971;29;20818;-73
2023/04/09 12:03:01;;;;;;;6.53;5.03;;;25.90;55.30;;;;;;4876643;29;21022;-74
2023/04/09 12:05:29;;;;;;;6.57;4.73;;;25.00;55.90;;;;;;4876385;29;20463;-74
2023/04/09 12:08:01;;;;;;;6.27;5.20;;;24.40;55.30;;;;;;4884173;29;20855;-76
2023/04/09 12:10:30;;;;;;;7.27;4.90;;;23.70;55.60;;;;;;4882305;29;20483;-74
2023/04/09 12:13:03;;;;;;;6.03;4.10;;;23.10;57.70;;;;;;4876301;29;21076;-74
2023/04/09 12:15:32;;;;;;;7.13;5.57;;;22.30;58.00;;;;;;4881601;29;20471;-74
2023/04/09 12:18:00;;;;;;;6.97;5.27;;;21.40;59.20;;;;;;4849837;29;20557;-74
2023/04/09 12:20:29;;;;;;;7.23;5.43;;;21.20;58.90;;;;;;4863028;29;20495;-76
2023/04/09 12:22:57;;;;;;;6.63;5.37;;;21.20;58.40;;;;;;4875580;29;20482;-74
2023/04/09 12:25:24;;;;;;;6.53;4.50;;;21.30;59.80;;;;;;4877747;29;20566;-74
2023/04/09 12:27:55;;;;;;;6.50;5.20;;;21.20;60.00;;;;;;4876919;29;20926;-76
2023/04/09 12:30:25;;;;;;;6.40;4.30;;;21.30;59.40;;;;;;4885362;29;20543;-76
2023/04/09 12:32:53;;;;;;;5.97;4.10;;;22.50;59.60;;;;;;4872467;29;20493;-75
2023/04/09 12:35:21;;;;;;;5.77;4.07;;;23.40;56.60;;;;;;4878305;29;20471;-76
2023/04/09 12:37:49;;;;;;;9.33;5.10;;;22.90;57.00;;;;;;4876829;29;20472;-75
2023/04/09 12:40:16;;;;;;;9.93;5.53;;;23.50;57.30;;;;;;4859947;29;20574;-75
2023/04/09 12:42:47;;;;;;;5.30;4.43;;;24.70;56.70;;;;;;4828344;29;21098;-75
2023/04/09 12:45:19;;;;;;;7.67;4.80;;;25.90;55.70;;;;;;4875104;29;20459;-77
2023/04/09 12:47:48;;;;;;;6.20;4.47;;;26.80;53.00;;;;;;4880063;29;20586;-74
2023/04/09 12:50:16;;;;;;;8.60;4.97;;;27.40;53.10;;;;;;4878924;29;20559;-75
2023/04/09 12:52:43;;;;;;;7.50;5.00;;;25.40;51.70;;;;;;4879257;29;20618;-74
2023/04/09 12:55:12;;;;;;;6.60;4.50;;;23.80;54.50;;;;;;4887927;29;20454;-77
2023/04/09 12:57:41;;;;;;;7.67;4.77;;;23.40;56.40;;;;;;4892567;29;20463;-75
2023/04/09 13:00:09;;;;;;;7.60;5.50;;;24.90;54.80;;;;;;4870339;29;21273;-75
2023/04/09 13:02:38;;;;;;;7.30;4.80;;;26.10;52.20;;;;;;4886590;29;20500;-76
2023/04/09 13:05:07;;;;;;;6.37;5.70;;;26.40;52.20;;;;;;4885187;29;20469;-75
2023/04/09 13:07:34;;;;;;;6.07;5.10;;;27.40;52.40;;;;;;4888624;29;20885;-75
2023/04/09 13:10:01;;;;;;;8.03;6.23;;;27.90;50.00;;;;;;4879342;29;20498;-73
2023/04/09 13:12:28;;;;;;;6.73;5.60;;;27.00;50.60;;;;;;4891850;29;20477;-74
2023/04/09 13:14:55;;;;;;;8.67;5.53;;;26.90;49.90;;;;;;4848578;29;20558;-76
2023/04/09 13:17:22;;;;;;;6.00;4.77;;;26.60;50.30;;;;;;4869273;29;20979;-73
2023/04/09 13:19:53;;;;;;;7.50;5.30;;;26.50;50.10;;;;;;4877711;29;21053;-74
2023/04/09 13:22:21;;;;;;;6.23;4.97;;;25.60;51.10;;;;;;4876093;29;20479;-74
2023/04/09 13:24:48;;;;;;;7.37;5.93;;;26.10;52.00;;;;;;4881887;29;20463;-75
2023/04/09 13:27:15;;;;;;;8.47;6.00;;;25.70;50.10;;;;;;4873585;29;20542;-73
2023/04/09 13:29:43;;;;;;;6.80;5.20;;;25.80;52.00;;;;;;4853251;29;20462;-73
2023/04/09 13:32:11;;;;;;;5.30;4.60;;;24.90;51.60;;;;;;4868248;29;20498;-73
2023/04/09 13:34:39;;;;;;;7.50;5.63;;;23.50;53.10;;;;;;4879827;29;20494;-75
2023/04/09 13:37:08;;;;;;;6.67;5.23;;;22.70;52.20;;;;;;4872522;29;20474;-74
2023/04/09 13:39:35;;;;;;;7.33;5.33;;;22.70;54.70;;;;;;4869872;29;20463;-75
2023/04/09 13:42:03;;;;;;;6.17;4.63;;;22.80;53.80;;;;;;4873122;29;20537;-74
2023/04/09 13:44:31;;;;;;;5.60;4.87;;;22.50;53.20;;;;;;4875754;29;21161;-73
2023/04/09 13:46:58;;;;;;;6.43;4.83;;;23.00;53.90;;;;;;4867095;29;20498;-74
2023/04/09 13:49:29;;;;;;;6.00;4.57;;;23.80;54.20;;;;;;4841529;29;22972;-75
2023/04/09 13:51:56;;;;;;;4.80;4.17;;;23.90;52.90;;;;;;4876850;29;20558;-74
2023/04/09 13:54:26;;;;;;;4.53;3.67;;;22.90;52.80;;;;;;4886692;29;20489;-76
2023/04/09 13:56:53;;;;;;;6.57;4.03;;;21.20;53.40;;;;;;4860213;29;20471;-76
2023/04/09 13:59:20;;;;;;;6.70;4.23;;;20.20;55.50;;;;;;4876662;29;20459;-74
2023/04/09 14:01:47;;;;;;;7.13;5.00;;;20.00;56.00;;;;;;4878361;29;20649;-76
2023/04/09 14:04:16;;;;;;;7.87;5.00;;;20.40;55.30;;;;;;4867563;29;20478;-75
2023/04/09 14:06:43;;;;;;;6.80;4.90;;;20.70;56.30;;;;;;4871955;29;20888;-74
2023/04/09 14:09:11;;;;;;;9.30;4.47;;;20.80;55.80;;;;;;4866624;29;20631;-74
2023/04/09 14:11:40;;;;;;;3.97;2.67;;;20.10;56.70;;;;;;4872787;29;21146;-74
2023/04/09 14:14:07;;;;;;;10.20;5.30;;;18.80;57.00;;;;;;4884749;29;20513;-74
2023/04/09 14:16:35;;;;;;;5.43;4.53;;;18.50;58.60;;;;;;4889262;29;20548;-74
2023/04/09 14:19:01;;;;;;;8.60;4.33;;;18.40;59.30;;;;;;4878430;29;21038;-74
2023/04/09 14:21:30;;;;;;;7.53;4.43;;;18.90;59.20;;;;;;4894593;29;20461;-74
2023/04/09 14:23:57;;;;;;;6.80;4.53;;;19.50;58.80;;;;;;4878863;29;20483;-74
2023/04/09 14:26:24;;;;;;;7.90;5.20;;;21.00;57.50;;;;;;4859349;29;20846;-74
2023/04/09 14:28:52;;;;;;;8.57;4.20;;;22.80;55.30;;;;;;4877831;29;20514;-75
2023/04/09 14:31:20;;;;;;;8.27;5.13;;;23.40;53.90;;;;;;4874477;29;21140;-75
2023/04/09 14:33:48;;;;;;;7.00;4.20;;;22.50;55.20;;;;;;4876974;29;20592;-74
2023/04/09 14:36:16;;;;;;;6.77;5.20;;;22.40;54.80;;;;;;4868585;29;20835;-75
2023/04/09 14:38:43;;;;;;;7.17;5.17;;;22.10;54.30;;;;;;4846727;29;20477;-75
2023/04/09 14:41:10;;;;;;;6.20;4.20;;;22.10;55.10;;;;;;4877634;29;20486;-74
2023/04/09 14:43:38;;;;;;;6.23;4.60;;;22.00;54.60;;;;;;4875760;29;20514;-73
2023/04/09 14:46:10;;;;;;;4.50;3.43;;;21.30;56.00;;;;;;4871723;29;20576;-74
2023/04/09 14:48:37;;;;;;;7.43;4.63;;;21.10;55.20;;;;;;4882823;29;20579;-75
2023/04/09 14:51:09;;;;;;;6.93;4.80;;;21.00;55.40;;;;;;4869982;29;20518;-75
2023/04/09 14:53:36;;;;;;;4.43;3.47;;;20.60;55.40;;;;;;4890494;29;21756;-77
2023/04/09 14:56:03;;;;;;;7.47;4.37;;;20.30;57.50;;;;;;4887135;29;20474;-76
2023/04/09 14:58:33;;;;;;;5.07;4.50;;;20.10;57.00;;;;;;4879384;29;20499;-76
2023/04/09 15:01:03;;;;;;;6.33;4.50;;;19.90;57.30;;;;;;4876229;29;20480;-73
2023/04/09 15:03:31;;;;;;;5.93;4.57;;;20.20;58.00;;;;;;4883082;29;20497;-76
2023/04/09 15:05:59;;;;;;;5.67;3.73;;;20.70;57.80;;;;;;4877638;29;20561;-74
2023/04/09 15:08:26;;;;;;;4.33;3.50;;;20.60;58.30;;;;;;4870355;29;20663;-75
2023/04/09 15:10:53;;;;;;;7.03;4.50;;;20.30;57.70;;;;;;4867388;29;20581;-74
2023/04/09 15:13:24;;;;;;;5.53;4.23;;;19.90;57.40;;;;;;4851985;29;20491;-76
2023/04/09 15:15:56;;;;;;;8.20;4.57;;;20.10;58.70;;;;;;4853070;29;21322;-76
2023/04/09 15:18:24;;;;;;;5.27;3.23;;;20.30;58.70;;;;;;4831515;29;20514;-75
2023/04/09 15:20:53;;;;;;;5.33;4.37;;;19.90;58.40;;;;;;4862303;29;20475;-76
2023/04/09 15:23:20;;;;;;;4.30;3.27;;;19.90;58.80;;;;;;4848781;29;20983;-74
2023/04/09 15:25:50;;;;;;;5.60;3.43;;;19.40;58.00;;;;;;4881462;29;21575;-75
2023/04/09 15:28:28;;;;;;;4.60;3.83;;;18.80;59.30;;;;;;4883370;29;20532;-77
2023/04/09 15:30:55;;;;;;;2.97;2.50;;;18.90;60.00;;;;;;4888528;29;20552;-74
2023/04/09 15:33:22;;;;;;;5.90;3.87;;;18.60;59.50;;;;;;4880927;29;20491;-74
2023/04/09 15:35:49;;;;;;;5.73;3.90;;;18.30;59.40;;;;;;4875481;29;20478;-74
2023/04/09 15:38:20;;;;;;;5.57;4.20;;;18.30;60.10;;;;;;4881012;29;22613;-76
2023/04/09 15:40:47;;;;;;;9.23;4.20;;;18.50;59.70;;;;;;4873533;29;21079;-74
2023/04/09 15:43:17;;;;;;;6.33;4.20;;;18.10;60.40;;;;;;4886354;29;20561;-74
2023/04/09 15:45:47;;;;;;;5.63;4.03;;;18.00;61.30;;;;;;4878146;29;20514;-75
2023/04/09 15:48:14;;;;;;;5.47;3.70;;;17.80;60.90;;;;;;4870953;29;20459;-75
2023/04/09 15:50:41;;;;;;;3.83;2.60;;;17.90;63.00;;;;;;4883260;29;20538;-76
2023/04/09 15:53:11;;;;;;;4.47;3.63;;;18.10;60.90;;;;;;4885306;29;20516;-77
2023/04/09 15:55:40;;;;;;;4.80;4.23;;;18.10;58.60;;;;;;4884952;29;20517;-74
2023/04/09 15:58:08;;;;;;;5.17;3.90;;;18.40;58.50;;;;;;4881916;29;20462;-75
2023/04/09 16:00:35;;;;;;;5.57;4.20;;;18.60;59.10;;;;;;4883166;29;20482;-76
2023/04/09 16:03:02;;;;;;;6.60;4.70;;;18.30;58.60;;;;;;4879360;29;20490;-75
2023/04/09 16:05:31;;;;;;;4.90;3.50;;;18.30;58.70;;;;;;4865339;29;20538;-75